createdAt,value
2022-08-03T08:21:19.542Z,40.06
2022-08-03T08:23:48.280Z,40.26
2022-08-03T08:29:16.170Z,39.19
2022-08-03T08:31:43.275Z,37.50
2022-08-03T08:34:10.800Z,39.00
2022-08-03T08:36:37.965Z,38.63
2022-08-03T08:39:05.211Z,38.53
2022-08-03T08:41:34.797Z,38.23
2022-08-03T08:44:08.153Z,38.32
2022-08-03T08:46:36.658Z,38.19
2022-08-03T08:49:04.965Z,38.08
2022-08-03T08:51:59.405Z,37.61
2022-08-03T08:54:29.658Z,38.28
2022-08-03T08:59:53.477Z,39.82
2022-08-03T09:02:25.256Z,38.84
2022-08-03T09:04:53.399Z,38.46
2022-08-03T09:07:20.951Z,37.16
2022-08-03T09:10:05.321Z,37.56
2022-08-03T09:12:45.210Z,37.85
2022-08-03T09:15:23.527Z,37.29
2022-08-03T09:17:53.919Z,37.40
2022-08-03T09:20:22.996Z,38.45
2022-08-03T09:22:56.495Z,38.22
2022-08-03T09:25:41.915Z,37.60
2022-08-03T09:28:56.494Z,36.00
2022-08-03T09:31:04.852Z,35.11
2022-08-03T09:33:36.062Z,34.94
2022-08-03T09:36:03.637Z,34.40
2022-08-03T09:38:30.742Z,34.86
2022-08-03T09:41:00.834Z,34.19
2022-08-03T09:43:28.730Z,34.79
2022-08-03T09:46:07.500Z,34.71
2022-08-03T09:48:35.557Z,34.56
2022-08-03T09:51:13.313Z,34.73
2022-08-03T09:53:58.659Z,34.45
2022-08-03T09:56:44.533Z,33.36
2022-08-03T09:59:13.519Z,33.43
2022-08-03T10:01:41.923Z,33.80
2022-08-03T10:04:15.070Z,34.02
2022-08-03T10:06:44.493Z,33.94
2022-08-03T10:09:15.260Z,33.87
2022-08-03T10:11:43.871Z,33.72
2022-08-03T10:14:18.863Z,33.68
2022-08-03T10:16:47.609Z,34.16
2022-08-03T10:19:15.802Z,33.84
2022-08-03T10:21:51.265Z,33.63
2022-08-03T10:24:27.280Z,33.27
2022-08-03T10:27:08.262Z,33.20
2022-08-03T10:29:39.006Z,33.03
2022-08-03T10:32:16.139Z,33.51
2022-08-03T10:34:50.555Z,33.50
2022-08-03T10:37:19.297Z,33.55
2022-08-03T10:39:56.312Z,33.50
2022-08-03T10:42:26.439Z,32.76
2022-08-03T10:45:04.431Z,33.06
2022-08-03T10:47:36.334Z,32.99
2022-08-03T10:50:04.762Z,32.94
2022-08-03T10:52:40.905Z,33.15
2022-08-03T10:55:57.562Z,33.03
2022-08-03T10:58:53.215Z,33.26
2022-08-03T11:02:03.446Z,33.27
2022-08-03T11:04:33.967Z,32.98
2022-08-03T11:07:17.307Z,32.94
2022-08-03T11:09:48.610Z,32.92
2022-08-03T11:12:32.374Z,32.48
2022-08-03T11:15:06.502Z,32.54
2022-08-03T11:17:46.378Z,33.00
2022-08-03T11:20:46.937Z,32.96
2022-08-03T11:23:15.707Z,33.16
2022-08-03T11:26:10.723Z,32.96
2022-08-03T11:31:51.430Z,33.29
2022-08-03T11:34:19.020Z,32.72
2022-08-03T11:37:22.690Z,32.62
2022-08-03T11:39:53.046Z,32.72
2022-08-03T11:42:23.278Z,32.78
2022-08-03T11:44:51.679Z,32.88
2022-08-03T11:47:21.201Z,32.96
2022-08-03T11:49:50.423Z,32.88
2022-08-03T11:52:18.301Z,32.72
2022-08-03T11:54:45.742Z,32.83
2022-08-03T11:57:13.417Z,32.99
2022-08-03T11:59:40.726Z,32.86
2022-08-03T12:02:09.285Z,33.00
2022-08-03T12:04:52.371Z,33.10
2022-08-03T12:07:24.990Z,33.26
2022-08-03T12:10:13.695Z,33.34
2022-08-03T12:12:46.367Z,33.34
2022-08-03T12:15:13.983Z,33.23
2022-08-03T12:17:41.840Z,32.75
2022-08-03T12:20:20.490Z,33.05
2022-08-03T12:23:06.477Z,33.20
2022-08-03T12:25:39.097Z,32.85
2022-08-03T12:28:37.388Z,33.00
2022-08-03T12:30:56.033Z,33.05
2022-08-03T12:33:25.519Z,32.90
2022-08-03T12:36:11.114Z,32.72
2022-08-03T12:38:39.784Z,32.88
2022-08-03T12:41:16.638Z,32.95
2022-08-03T12:43:51.420Z,33.13
2022-08-03T12:46:19.784Z,32.58
2022-08-03T12:49:04.454Z,32.75
2022-08-03T12:51:34.527Z,32.83
2022-08-03T12:54:03.130Z,32.90
2022-08-03T12:56:30.458Z,32.98
2022-08-03T12:58:57.620Z,33.27
2022-08-03T13:01:26.043Z,33.06
2022-08-03T13:03:54.220Z,33.03
2022-08-03T13:06:25.510Z,32.85
2022-08-03T13:09:07.236Z,32.64
2022-08-03T13:11:57.600Z,32.86
2022-08-03T13:14:23.699Z,32.92
2022-08-03T13:16:51.995Z,32.94
2022-08-03T13:19:19.248Z,32.83
2022-08-03T13:22:01.303Z,32.95
2022-08-03T13:24:33.615Z,32.42
2022-08-03T13:27:21.949Z,32.80
2022-08-03T13:29:49.953Z,32.82
2022-08-03T13:32:17.387Z,33.12
2022-08-03T13:34:44.531Z,32.95
2022-08-03T13:37:12.216Z,32.86
2022-08-03T13:39:57.312Z,32.99
2022-08-03T13:42:30.903Z,32.99
2022-08-03T13:44:59.112Z,32.92
2022-08-03T13:47:27.028Z,33.03
2022-08-03T13:50:01.089Z,33.16
2022-08-03T13:52:34.496Z,33.16
2022-08-03T13:55:03.253Z,32.86
2022-08-03T13:58:03.292Z,32.89
2022-08-03T14:00:27.345Z,32.96
2022-08-03T14:03:10.818Z,32.95
2022-08-03T14:05:41.708Z,32.82
2022-08-03T14:08:09.533Z,32.82
2022-08-03T14:10:38.783Z,32.74
2022-08-03T14:13:06.790Z,32.69
2022-08-03T14:15:38.143Z,32.76
2022-08-03T14:18:12.722Z,32.79
2022-08-03T14:20:50.005Z,32.72
2022-08-03T14:23:18.807Z,32.51
2022-08-03T14:25:52.441Z,32.59
2022-08-03T14:28:23.229Z,32.48
2022-08-03T14:30:54.682Z,32.74
2022-08-03T14:33:22.667Z,32.76
2022-08-03T14:35:50.713Z,32.67
2022-08-03T14:38:18.806Z,32.45
2022-08-03T14:40:46.375Z,32.38
2022-08-03T14:43:14.419Z,32.52
2022-08-03T14:45:41.599Z,32.47
2022-08-03T14:50:29.670Z,32.35
2022-08-03T14:50:56.808Z,32.38
2022-08-03T14:53:24.637Z,32.49
2022-08-03T14:55:53.390Z,32.51
2022-08-03T14:58:22.175Z,32.45
2022-08-03T15:00:51.095Z,32.55
2022-08-03T15:06:16.736Z,32.47
2022-08-03T15:08:55.384Z,32.49
2022-08-03T15:11:30.995Z,32.64
2022-08-03T15:13:58.110Z,32.65
2022-08-03T15:16:26.633Z,32.54
2022-08-03T15:18:57.409Z,32.49
2022-08-03T15:21:46.898Z,32.54
2022-08-03T15:24:11.900Z,32.64
2022-08-03T15:26:41.622Z,32.55
2022-08-03T15:29:09.171Z,32.28
2022-08-03T15:31:56.419Z,32.30
2022-08-03T15:34:23.609Z,32.28
2022-08-03T15:36:50.789Z,32.23
2022-08-03T15:39:17.942Z,32.16
2022-08-03T15:41:45.224Z,32.07
2022-08-03T15:44:12.474Z,32.11
2022-08-03T15:46:39.638Z,32.24
2022-08-03T15:49:06.732Z,32.19
2022-08-03T15:51:33.947Z,32.20
2022-08-03T15:54:01.109Z,32.24
2022-08-03T15:56:28.249Z,32.11
2022-08-03T15:59:09.918Z,31.97
2022-08-03T16:01:40.646Z,31.90
2022-08-03T16:04:07.813Z,31.96
2022-08-03T16:06:38.242Z,31.82
2022-08-03T16:09:23.712Z,31.72
2022-08-03T16:11:54.874Z,31.80
2022-08-03T16:14:32.654Z,31.92
2022-08-03T16:17:03.987Z,31.83
2022-08-03T16:19:31.364Z,31.83
2022-08-03T16:21:59.274Z,31.83
2022-08-03T16:24:27.912Z,31.67
2022-08-03T16:26:56.281Z,31.63
2022-08-03T16:29:24.046Z,31.58
2022-08-03T16:31:52.656Z,31.66
2022-08-03T16:34:21.073Z,31.58
2022-08-03T16:36:48.347Z,31.65
2022-08-03T16:39:15.645Z,31.49
2022-08-03T16:41:53.621Z,31.43
2022-08-03T16:44:30.114Z,31.39
2022-08-03T16:46:58.076Z,31.41
2022-08-03T16:49:55.816Z,31.32
2022-08-03T16:52:13.039Z,31.34
2022-08-03T16:54:40.770Z,31.25
2022-08-03T16:57:08.620Z,31.27
2022-08-03T16:59:37.064Z,31.14
2022-08-03T17:02:09.927Z,31.15
2022-08-03T17:04:40.342Z,31.07
2022-08-03T17:07:08.683Z,31.06
2022-08-03T17:09:38.362Z,30.99
2022-08-03T17:12:06.328Z,30.92
2022-08-03T17:14:39.171Z,30.87
2022-08-03T17:17:16.660Z,30.88
2022-08-03T17:19:47.431Z,30.88
2022-08-03T17:22:24.551Z,30.83
2022-08-03T17:24:53.335Z,30.84
2022-08-03T17:28:48.176Z,30.80
2022-08-03T17:30:15.794Z,30.74
2022-08-03T17:32:53.499Z,30.70
2022-08-03T17:35:36.922Z,30.63
2022-08-03T17:38:11.993Z,30.56
2022-08-03T17:40:50.073Z,30.49
2022-08-03T17:44:08.173Z,30.46
2022-08-03T17:46:07.149Z,30.32
2022-08-03T17:48:34.565Z,30.22
2022-08-03T17:51:24.144Z,30.22
2022-08-03T17:54:04.641Z,30.11
2022-08-03T17:56:57.396Z,29.97
2022-08-03T18:00:36.894Z,29.85
2022-08-03T18:03:23.230Z,29.63
2022-08-03T18:06:10.930Z,29.58
2022-08-03T18:08:51.603Z,29.31
2022-08-03T18:11:24.161Z,29.29
2022-08-03T18:14:16.626Z,29.22
2022-08-03T18:16:51.040Z,29.03
2022-08-03T18:19:19.278Z,29.06
2022-08-03T18:22:02.887Z,28.95
2022-08-03T18:24:31.416Z,28.81
2022-08-03T18:26:59.495Z,28.69
2022-08-03T18:29:27.655Z,28.58
2022-08-03T18:32:04.016Z,28.43
2022-08-03T18:34:34.620Z,28.39
2022-08-03T18:37:07.493Z,28.34
2022-08-03T18:39:49.951Z,28.23
2022-08-03T18:42:19.554Z,28.12
2022-08-03T18:44:54.434Z,28.09
2022-08-03T18:47:51.619Z,28.00
2022-08-03T18:50:34.120Z,27.90
2022-08-03T18:53:21.465Z,27.82
2022-08-03T18:56:01.888Z,27.78
2022-08-03T18:58:38.866Z,27.68
2022-08-03T19:02:00.640Z,27.68
2022-08-03T19:04:20.414Z,27.49
2022-08-03T19:06:58.925Z,27.54
2022-08-03T19:09:49.450Z,27.38
2022-08-03T19:12:39.876Z,27.33
2022-08-03T19:15:15.796Z,27.23
2022-08-03T19:17:53.384Z,27.17
2022-08-03T19:20:23.043Z,27.27
2022-08-03T19:23:22.052Z,27.27
2022-08-03T19:25:49.503Z,27.07
2022-08-03T19:28:17.745Z,26.89
2022-08-03T19:30:53.773Z,26.84
2022-08-03T19:33:22.737Z,26.76
2022-08-03T19:35:54.920Z,26.75
2022-08-03T19:38:29.186Z,26.93
2022-08-03T19:41:00.772Z,26.83
2022-08-03T19:43:53.162Z,26.66
2022-08-03T19:46:30.732Z,26.56
2022-08-03T19:49:14.670Z,26.46
2022-08-03T19:51:58.549Z,26.42
2022-08-03T19:54:45.522Z,26.36
2022-08-03T19:57:19.352Z,26.46
2022-08-03T19:59:49.896Z,26.62
2022-08-03T20:02:27.268Z,26.35
2022-08-03T20:04:57.207Z,26.31
2022-08-03T20:07:26.347Z,26.45
2022-08-03T20:09:56.724Z,26.02
2022-08-03T20:12:28.290Z,26.13
2022-08-03T20:14:57.665Z,26.17
2022-08-03T20:17:56.355Z,25.98
2022-08-03T20:20:12.976Z,25.76
2022-08-03T20:22:46.104Z,25.80
2022-08-03T20:25:20.834Z,25.73
2022-08-03T20:28:03.606Z,25.83
2022-08-03T20:30:36.178Z,25.57
2022-08-03T20:33:04.832Z,25.56
2022-08-03T20:35:33.409Z,25.53
2022-08-03T20:38:00.626Z,25.36
2022-08-03T20:40:27.863Z,25.35
2022-08-03T20:42:56.249Z,25.15
2022-08-03T20:45:59.605Z,24.95
2022-08-03T20:48:10.933Z,24.91
2022-08-03T20:54:00.324Z,24.67
2022-08-03T20:56:18.424Z,24.59
2022-08-03T20:58:50.785Z,24.53
2022-08-03T21:01:18.154Z,24.54
2022-08-03T21:03:55.658Z,24.68
2022-08-03T21:06:27.709Z,24.70
2022-08-03T21:09:04.046Z,24.65
2022-08-03T21:11:44.407Z,24.56
2022-08-03T21:14:16.572Z,24.43
2022-08-03T21:16:46.101Z,24.49
2022-08-03T21:19:14.209Z,24.40
2022-08-03T21:21:44.609Z,24.27
2022-08-03T21:24:13.270Z,24.20
2022-08-03T21:26:40.899Z,24.25
2022-08-03T21:29:08.961Z,24.09
2022-08-03T21:31:39.330Z,24.06
2022-08-03T21:34:06.966Z,24.17
2022-08-03T21:36:36.643Z,24.30
2022-08-03T21:39:07.038Z,24.17
2022-08-03T21:41:34.846Z,24.22
2022-08-03T21:44:04.137Z,24.16
2022-08-03T21:46:36.852Z,24.10
2022-08-03T21:50:04.884Z,23.88
2022-08-03T21:51:55.782Z,23.90
2022-08-03T21:54:30.292Z,23.89
2022-08-03T21:57:03.885Z,23.79
2022-08-03T21:59:35.107Z,23.75
2022-08-03T22:02:02.973Z,23.94
2022-08-03T22:04:45.908Z,23.88
2022-08-03T22:07:22.828Z,23.75
2022-08-03T22:09:52.182Z,23.61
2022-08-03T22:12:22.223Z,23.54
2022-08-03T22:15:01.099Z,23.58
2022-08-03T22:17:55.917Z,23.44
2022-08-03T22:20:20.115Z,23.44
2022-08-03T22:22:55.406Z,23.44
2022-08-03T22:28:22.224Z,23.27
2022-08-03T22:30:49.559Z,23.40
2022-08-03T22:33:16.944Z,23.61
2022-08-03T22:35:48.494Z,23.43
2022-08-03T22:38:17.122Z,23.36
2022-08-03T22:40:45.056Z,23.13
2022-08-03T22:43:12.318Z,22.91
2022-08-03T22:46:07.979Z,22.89
2022-08-03T22:48:27.900Z,22.95
2022-08-03T22:50:56.666Z,22.82
2022-08-03T22:53:23.904Z,22.79
2022-08-03T22:55:52.159Z,22.85
2022-08-03T22:58:20.939Z,22.62
2022-08-03T23:00:53.960Z,22.61
2022-08-03T23:03:25.012Z,22.65
2022-08-03T23:06:00.956Z,22.69
2022-08-03T23:08:33.074Z,22.77
2022-08-03T23:11:05.736Z,22.79
2022-08-03T23:13:33.467Z,22.85
2022-08-03T23:16:01.369Z,22.83
2022-08-03T23:18:32.945Z,22.81
2022-08-03T23:21:11.068Z,22.76
2022-08-03T23:23:43.981Z,22.72
2022-08-03T23:26:13.489Z,22.72
2022-08-03T23:28:45.083Z,22.62
2022-08-03T23:31:13.866Z,22.65
2022-08-03T23:33:44.495Z,22.56
2022-08-03T23:36:30.342Z,22.55
2022-08-03T23:39:02.198Z,22.51
2022-08-03T23:41:30.791Z,22.55
2022-08-03T23:44:00.734Z,22.56
2022-08-03T23:46:30.456Z,22.45
2022-08-03T23:48:58.533Z,22.54
2022-08-03T23:51:49.499Z,22.48
2022-08-03T23:54:30.435Z,22.63
2022-08-03T23:57:08.221Z,22.76
2022-08-03T23:59:54.258Z,22.49
